sensor_id;sensor_type;location;lat;lon;timestamp;temperature;humidity
32522;DHT22;18963;51.504;5.316;2024-01-25T00:00:40;7.80;99.90
32522;DHT22;18963;51.504;5.316;2024-01-25T00:03:06;7.70;99.90
32522;DHT22;18963;51.504;5.316;2024-01-25T00:05:31;7.70;99.90
32522;DHT22;18963;51.504;5.316;2024-01-25T00:07:57;7.60;99.90
32522;DHT22;18963;51.504;5.316;2024-01-25T00:10:23;7.60;99.90
32522;DHT22;18963;51.504;5.316;2024-01-25T00:12:48;7.50;99.90
32522;DHT22;18963;51.504;5.316;2024-01-25T00:15:14;7.50;99.90
32522;DHT22;18963;51.504;5.316;2024-01-25T00:17:39;7.40;99.90
32522;DHT22;18963;51.504;5.316;2024-01-25T00:20:05;7.40;99.90
32522;DHT22;18963;51.504;5.316;2024-01-25T00:22:31;7.30;99.90
32522;DHT22;18963;51.504;5.316;2024-01-25T00:24:57;7.30;99.90
32522;DHT22;18963;51.504;5.316;2024-01-25T00:27:23;7.20;99.90
32522;DHT22;18963;51.504;5.316;2024-01-25T00:29:48;7.10;99.90
32522;DHT22;18963;51.504;5.316;2024-01-25T00:32:13;7.10;99.90
32522;DHT22;18963;51.504;5.316;2024-01-25T00:34:39;7.00;99.90
32522;DHT22;18963;51.504;5.316;2024-01-25T00:37:05;7.00;99.90
32522;DHT22;18963;51.504;5.316;2024-01-25T00:39:30;7.00;99.90
32522;DHT22;18963;51.504;5.316;2024-01-25T00:41:58;6.90;99.90
32522;DHT22;18963;51.504;5.316;2024-01-25T00:44:26;6.90;99.90
32522;DHT22;18963;51.504;5.316;2024-01-25T00:46:53;6.80;99.90
32522;DHT22;18963;51.504;5.316;2024-01-25T00:49:19;6.80;99.90
32522;DHT22;18963;51.504;5.316;2024-01-25T00:51:46;6.70;99.90
32522;DHT22;18963;51.504;5.316;2024-01-25T00:54:12;6.60;99.90
32522;DHT22;18963;51.504;5.316;2024-01-25T00:56:38;6.60;99.90
32522;DHT22;18963;51.504;5.316;2024-01-25T00:59:03;6.50;99.90
32522;DHT22;18963;51.504;5.316;2024-01-25T01:01:29;6.50;99.90
32522;DHT22;18963;51.504;5.316;2024-01-25T01:03:55;6.50;99.90
32522;DHT22;18963;51.504;5.316;2024-01-25T01:06:20;6.50;99.90
32522;DHT22;18963;51.504;5.316;2024-01-25T01:08:46;6.40;99.90
32522;DHT22;18963;51.504;5.316;2024-01-25T01:11:12;6.40;99.90
32522;DHT22;18963;51.504;5.316;2024-01-25T01:13:37;6.40;99.90
32522;DHT22;18963;51.504;5.316;2024-01-25T01:16:02;6.30;99.90
32522;DHT22;18963;51.504;5.316;2024-01-25T01:18:28;6.30;99.90
32522;DHT22;18963;51.504;5.316;2024-01-25T01:20:53;6.30;99.90
32522;DHT22;18963;51.504;5.316;2024-01-25T01:23:19;6.20;99.90
32522;DHT22;18963;51.504;5.316;2024-01-25T01:25:44;6.20;99.90
32522;DHT22;18963;51.504;5.316;2024-01-25T01:28:10;6.20;99.90
32522;DHT22;18963;51.504;5.316;2024-01-25T01:30:35;6.10;99.90
32522;DHT22;18963;51.504;5.316;2024-01-25T01:33:01;6.10;99.90
32522;DHT22;18963;51.504;5.316;2024-01-25T01:35:26;6.10;99.90
32522;DHT22;18963;51.504;5.316;2024-01-25T01:37:52;6.10;99.90
32522;DHT22;18963;51.504;5.316;2024-01-25T01:40:17;6.10;99.90
32522;DHT22;18963;51.504;5.316;2024-01-25T01:42:43;6.10;99.90
32522;DHT22;18963;51.504;5.316;2024-01-25T01:45:09;6.00;99.90
32522;DHT22;18963;51.504;5.316;2024-01-25T01:47:36;6.00;99.90
32522;DHT22;18963;51.504;5.316;2024-01-25T01:50:02;6.00;99.90
32522;DHT22;18963;51.504;5.316;2024-01-25T01:52:27;6.00;99.90
32522;DHT22;18963;51.504;5.316;2024-01-25T01:54:53;6.00;99.90
32522;DHT22;18963;51.504;5.316;2024-01-25T01:57:18;5.90;99.90
32522;DHT22;18963;51.504;5.316;2024-01-25T01:59:44;5.90;99.90
32522;DHT22;18963;51.504;5.316;2024-01-25T02:02:10;5.90;99.90
32522;DHT22;18963;51.504;5.316;2024-01-25T02:04:35;5.80;99.90
32522;DHT22;18963;51.504;5.316;2024-01-25T02:07:01;5.90;99.90
32522;DHT22;18963;51.504;5.316;2024-01-25T02:09:26;5.80;99.90
32522;DHT22;18963;51.504;5.316;2024-01-25T02:11:59;5.80;99.90
32522;DHT22;18963;51.504;5.316;2024-01-25T02:14:25;5.80;99.90
32522;DHT22;18963;51.504;5.316;2024-01-25T02:16:51;5.70;99.90
32522;DHT22;18963;51.504;5.316;2024-01-25T02:19:16;5.60;99.90
32522;DHT22;18963;51.504;5.316;2024-01-25T02:21:42;5.60;99.90
32522;DHT22;18963;51.504;5.316;2024-01-25T02:24:07;5.60;99.90
32522;DHT22;18963;51.504;5.316;2024-01-25T02:26:33;5.50;99.90
32522;DHT22;18963;51.504;5.316;2024-01-25T02:28:58;5.50;99.90
32522;DHT22;18963;51.504;5.316;2024-01-25T02:31:25;5.40;99.90
32522;DHT22;18963;51.504;5.316;2024-01-25T02:33:51;5.40;99.90
32522;DHT22;18963;51.504;5.316;2024-01-25T02:36:16;5.40;99.90
32522;DHT22;18963;51.504;5.316;2024-01-25T02:38:42;5.30;99.90
32522;DHT22;18963;51.504;5.316;2024-01-25T02:41:07;5.20;99.90
32522;DHT22;18963;51.504;5.316;2024-01-25T02:43:33;5.20;99.90
32522;DHT22;18963;51.504;5.316;2024-01-25T02:45:58;5.20;99.90
32522;DHT22;18963;51.504;5.316;2024-01-25T02:48:24;5.10;99.90
32522;DHT22;18963;51.504;5.316;2024-01-25T02:50:49;5.10;99.90
32522;DHT22;18963;51.504;5.316;2024-01-25T02:53:15;5.10;99.90
32522;DHT22;18963;51.504;5.316;2024-01-25T02:55:40;5.00;99.90
32522;DHT22;18963;51.504;5.316;2024-01-25T02:58:05;5.00;99.90
32522;DHT22;18963;51.504;5.316;2024-01-25T03:00:31;5.00;99.90
32522;DHT22;18963;51.504;5.316;2024-01-25T03:02:57;5.00;99.90
32522;DHT22;18963;51.504;5.316;2024-01-25T03:05:22;4.90;99.90
32522;DHT22;18963;51.504;5.316;2024-01-25T03:07:47;4.90;99.90
32522;DHT22;18963;51.504;5.316;2024-01-25T03:10:13;4.90;99.90
32522;DHT22;18963;51.504;5.316;2024-01-25T03:12:38;4.90;99.90
32522;DHT22;18963;51.504;5.316;2024-01-25T03:15:04;4.90;99.90
32522;DHT22;18963;51.504;5.316;2024-01-25T03:17:30;4.80;99.90
32522;DHT22;18963;51.504;5.316;2024-01-25T03:19:55;4.80;99.90
32522;DHT22;18963;51.504;5.316;2024-01-25T03:22:21;4.80;99.90
32522;DHT22;18963;51.504;5.316;2024-01-25T03:24:47;4.80;99.90
32522;DHT22;18963;51.504;5.316;2024-01-25T03:27:13;4.70;99.90
32522;DHT22;18963;51.504;5.316;2024-01-25T03:29:42;4.70;99.90
32522;DHT22;18963;51.504;5.316;2024-01-25T03:32:09;4.60;99.90
32522;DHT22;18963;51.504;5.316;2024-01-25T03:34:34;4.50;99.90
32522;DHT22;18963;51.504;5.316;2024-01-25T03:37:00;4.50;99.90
32522;DHT22;18963;51.504;5.316;2024-01-25T03:39:25;4.50;99.90
32522;DHT22;18963;51.504;5.316;2024-01-25T03:41:51;4.40;99.90
32522;DHT22;18963;51.504;5.316;2024-01-25T03:44:16;4.40;99.90
32522;DHT22;18963;51.504;5.316;2024-01-25T03:46:42;4.30;99.90
32522;DHT22;18963;51.504;5.316;2024-01-25T03:49:07;4.20;99.90
32522;DHT22;18963;51.504;5.316;2024-01-25T03:51:33;4.10;99.90
32522;DHT22;18963;51.504;5.316;2024-01-25T03:53:58;4.10;99.90
32522;DHT22;18963;51.504;5.316;2024-01-25T03:56:24;4.00;99.90
32522;DHT22;18963;51.504;5.316;2024-01-25T03:58:49;3.90;99.90
32522;DHT22;18963;51.504;5.316;2024-01-25T04:01:15;3.80;99.90
32522;DHT22;18963;51.504;5.316;2024-01-25T04:03:40;3.80;99.90
32522;DHT22;18963;51.504;5.316;2024-01-25T04:06:06;3.70;99.90
32522;DHT22;18963;51.504;5.316;2024-01-25T04:08:32;3.60;99.90
32522;DHT22;18963;51.504;5.316;2024-01-25T04:11:00;3.50;99.90
32522;DHT22;18963;51.504;5.316;2024-01-25T04:13:25;3.40;99.90
32522;DHT22;18963;51.504;5.316;2024-01-25T04:15:51;3.40;99.90
32522;DHT22;18963;51.504;5.316;2024-01-25T04:18:16;3.30;99.90
32522;DHT22;18963;51.504;5.316;2024-01-25T04:20:43;3.30;99.90
32522;DHT22;18963;51.504;5.316;2024-01-25T04:23:08;3.20;99.90
32522;DHT22;18963;51.504;5.316;2024-01-25T04:25:33;3.20;99.90
32522;DHT22;18963;51.504;5.316;2024-01-25T04:27:59;3.10;99.90
32522;DHT22;18963;51.504;5.316;2024-01-25T04:30:25;3.10;99.90
32522;DHT22;18963;51.504;5.316;2024-01-25T04:32:50;3.10;99.90
32522;DHT22;18963;51.504;5.316;2024-01-25T04:35:16;3.00;99.90
32522;DHT22;18963;51.504;5.316;2024-01-25T04:37:41;3.00;99.90
32522;DHT22;18963;51.504;5.316;2024-01-25T04:40:07;2.90;99.90
32522;DHT22;18963;51.504;5.316;2024-01-25T04:42:33;2.80;99.90
32522;DHT22;18963;51.504;5.316;2024-01-25T04:44:58;2.80;99.90
32522;DHT22;18963;51.504;5.316;2024-01-25T04:47:24;2.70;99.90
32522;DHT22;18963;51.504;5.316;2024-01-25T04:49:49;2.60;99.90
32522;DHT22;18963;51.504;5.316;2024-01-25T04:52:15;2.60;99.90
32522;DHT22;18963;51.504;5.316;2024-01-25T04:54:40;2.50;99.90
32522;DHT22;18963;51.504;5.316;2024-01-25T04:57:06;2.50;99.90
32522;DHT22;18963;51.504;5.316;2024-01-25T04:59:35;2.50;99.90
32522;DHT22;18963;51.504;5.316;2024-01-25T05:02:00;2.50;99.90
32522;DHT22;18963;51.504;5.316;2024-01-25T05:04:27;2.50;99.90
32522;DHT22;18963;51.504;5.316;2024-01-25T05:06:53;2.50;99.90
32522;DHT22;18963;51.504;5.316;2024-01-25T05:09:19;2.60;99.90
32522;DHT22;18963;51.504;5.316;2024-01-25T05:11:44;2.60;99.90
32522;DHT22;18963;51.504;5.316;2024-01-25T05:14:10;2.60;99.90
32522;DHT22;18963;51.504;5.316;2024-01-25T05:16:35;2.50;99.90
32522;DHT22;18963;51.504;5.316;2024-01-25T05:19:01;2.50;99.90
32522;DHT22;18963;51.504;5.316;2024-01-25T05:21:26;2.50;99.90
32522;DHT22;18963;51.504;5.316;2024-01-25T05:23:52;2.50;99.90
32522;DHT22;18963;51.504;5.316;2024-01-25T05:26:17;2.40;99.90
32522;DHT22;18963;51.504;5.316;2024-01-25T05:28:44;2.40;99.90
32522;DHT22;18963;51.504;5.316;2024-01-25T05:31:10;2.30;99.90
32522;DHT22;18963;51.504;5.316;2024-01-25T05:33:40;2.20;99.90
32522;DHT22;18963;51.504;5.316;2024-01-25T05:36:06;2.20;99.90
32522;DHT22;18963;51.504;5.316;2024-01-25T05:38:32;2.10;99.90
32522;DHT22;18963;51.504;5.316;2024-01-25T05:40:57;2.10;99.90
32522;DHT22;18963;51.504;5.316;2024-01-25T05:43:23;2.00;99.90
32522;DHT22;18963;51.504;5.316;2024-01-25T05:45:48;1.90;99.90
32522;DHT22;18963;51.504;5.316;2024-01-25T05:48:14;1.90;99.90
32522;DHT22;18963;51.504;5.316;2024-01-25T05:50:40;1.90;99.90
32522;DHT22;18963;51.504;5.316;2024-01-25T05:53:05;1.90;99.90
32522;DHT22;18963;51.504;5.316;2024-01-25T05:55:31;1.90;99.90
32522;DHT22;18963;51.504;5.316;2024-01-25T05:57:56;1.90;99.90
32522;DHT22;18963;51.504;5.316;2024-01-25T06:00:22;1.90;99.90
32522;DHT22;18963;51.504;5.316;2024-01-25T06:02:47;1.90;99.90
32522;DHT22;18963;51.504;5.316;2024-01-25T06:05:13;1.90;99.90
32522;DHT22;18963;51.504;5.316;2024-01-25T06:07:38;1.90;99.90
32522;DHT22;18963;51.504;5.316;2024-01-25T06:10:04;1.90;99.90
32522;DHT22;18963;51.504;5.316;2024-01-25T06:12:30;1.90;99.90
32522;DHT22;18963;51.504;5.316;2024-01-25T06:14:55;1.90;99.90
32522;DHT22;18963;51.504;5.316;2024-01-25T06:17:21;1.90;99.90
32522;DHT22;18963;51.504;5.316;2024-01-25T06:19:46;1.80;99.90
32522;DHT22;18963;51.504;5.316;2024-01-25T06:22:12;1.80;99.90
32522;DHT22;18963;51.504;5.316;2024-01-25T06:24:42;1.80;99.90
32522;DHT22;18963;51.504;5.316;2024-01-25T06:27:09;1.80;99.90
32522;DHT22;18963;51.504;5.316;2024-01-25T06:29:34;1.80;99.90
32522;DHT22;18963;51.504;5.316;2024-01-25T06:32:00;1.70;99.90
32522;DHT22;18963;51.504;5.316;2024-01-25T06:34:25;1.80;99.90
32522;DHT22;18963;51.504;5.316;2024-01-25T06:36:50;1.80;99.90
32522;DHT22;18963;51.504;5.316;2024-01-25T06:39:16;1.80;99.90
32522;DHT22;18963;51.504;5.316;2024-01-25T06:41:42;1.80;99.90
32522;DHT22;18963;51.504;5.316;2024-01-25T06:44:07;1.70;99.90
32522;DHT22;18963;51.504;5.316;2024-01-25T06:46:33;1.70;99.90
32522;DHT22;18963;51.504;5.316;2024-01-25T06:48:58;1.70;99.90
32522;DHT22;18963;51.504;5.316;2024-01-25T06:51:24;1.70;99.90
32522;DHT22;18963;51.504;5.316;2024-01-25T06:53:49;1.70;99.90
32522;DHT22;18963;51.504;5.316;2024-01-25T06:56:15;1.80;99.90
32522;DHT22;18963;51.504;5.316;2024-01-25T06:58:40;1.80;99.90
32522;DHT22;18963;51.504;5.316;2024-01-25T07:01:06;1.90;99.90
32522;DHT22;18963;51.504;5.316;2024-01-25T07:03:31;1.90;99.90
32522;DHT22;18963;51.504;5.316;2024-01-25T07:05:57;1.80;99.90
32522;DHT22;18963;51.504;5.316;2024-01-25T07:08:22;1.70;99.90
32522;DHT22;18963;51.504;5.316;2024-01-25T07:10:49;1.70;99.90
32522;DHT22;18963;51.504;5.316;2024-01-25T07:13:14;1.70;99.90
32522;DHT22;18963;51.504;5.316;2024-01-25T07:15:40;1.60;99.90
32522;DHT22;18963;51.504;5.316;2024-01-25T07:18:06;1.60;99.90
32522;DHT22;18963;51.504;5.316;2024-01-25T07:20:31;1.50;99.90
32522;DHT22;18963;51.504;5.316;2024-01-25T07:22:57;1.50;99.90
32522;DHT22;18963;51.504;5.316;2024-01-25T07:25:22;1.50;99.90
32522;DHT22;18963;51.504;5.316;2024-01-25T07:27:48;1.40;99.90
32522;DHT22;18963;51.504;5.316;2024-01-25T07:30:14;1.40;99.90
32522;DHT22;18963;51.504;5.316;2024-01-25T07:32:40;1.50;99.90
32522;DHT22;18963;51.504;5.316;2024-01-25T07:35:11;1.50;99.90
32522;DHT22;18963;51.504;5.316;2024-01-25T07:37:37;1.50;99.90
32522;DHT22;18963;51.504;5.316;2024-01-25T07:40:03;1.50;99.90
32522;DHT22;18963;51.504;5.316;2024-01-25T07:42:29;1.60;99.90
32522;DHT22;18963;51.504;5.316;2024-01-25T07:44:54;1.70;99.90
32522;DHT22;18963;51.504;5.316;2024-01-25T07:47:20;1.80;99.90
32522;DHT22;18963;51.504;5.316;2024-01-25T07:49:45;1.90;99.90
32522;DHT22;18963;51.504;5.316;2024-01-25T07:52:11;2.10;99.90
32522;DHT22;18963;51.504;5.316;2024-01-25T07:54:36;2.20;99.90
32522;DHT22;18963;51.504;5.316;2024-01-25T07:57:02;2.30;99.90
32522;DHT22;18963;51.504;5.316;2024-01-25T07:59:27;2.30;99.90
32522;DHT22;18963;51.504;5.316;2024-01-25T08:01:53;2.40;99.90
32522;DHT22;18963;51.504;5.316;2024-01-25T08:04:18;2.50;99.90
32522;DHT22;18963;51.504;5.316;2024-01-25T08:06:44;2.50;99.90
32522;DHT22;18963;51.504;5.316;2024-01-25T08:09:09;2.60;99.90
32522;DHT22;18963;51.504;5.316;2024-01-25T08:11:35;2.60;99.90
32522;DHT22;18963;51.504;5.316;2024-01-25T08:14:01;2.70;99.90
32522;DHT22;18963;51.504;5.316;2024-01-25T08:16:28;2.70;99.90
32522;DHT22;18963;51.504;5.316;2024-01-25T08:18:54;2.80;99.90
32522;DHT22;18963;51.504;5.316;2024-01-25T08:21:20;2.90;99.90
32522;DHT22;18963;51.504;5.316;2024-01-25T08:23:45;2.90;99.90
32522;DHT22;18963;51.504;5.316;2024-01-25T08:26:10;3.00;99.90
32522;DHT22;18963;51.504;5.316;2024-01-25T08:28:38;3.10;99.90
32522;DHT22;18963;51.504;5.316;2024-01-25T08:31:04;3.20;99.90
32522;DHT22;18963;51.504;5.316;2024-01-25T08:33:30;3.30;99.90
32522;DHT22;18963;51.504;5.316;2024-01-25T08:35:55;3.40;99.90
32522;DHT22;18963;51.504;5.316;2024-01-25T08:38:21;3.50;99.90
32522;DHT22;18963;51.504;5.316;2024-01-25T08:40:46;3.60;99.90
32522;DHT22;18963;51.504;5.316;2024-01-25T08:43:12;3.70;99.90
32522;DHT22;18963;51.504;5.316;2024-01-25T08:45:37;3.80;99.90
32522;DHT22;18963;51.504;5.316;2024-01-25T08:48:03;3.90;99.90
32522;DHT22;18963;51.504;5.316;2024-01-25T08:50:29;4.00;99.90
32522;DHT22;18963;51.504;5.316;2024-01-25T08:52:54;4.00;99.90
32522;DHT22;18963;51.504;5.316;2024-01-25T08:55:20;4.10;99.90
32522;DHT22;18963;51.504;5.316;2024-01-25T08:57:47;4.20;99.90
32522;DHT22;18963;51.504;5.316;2024-01-25T09:00:13;4.30;99.90
32522;DHT22;18963;51.504;5.316;2024-01-25T09:02:39;4.40;99.90
32522;DHT22;18963;51.504;5.316;2024-01-25T09:05:05;4.40;99.90
32522;DHT22;18963;51.504;5.316;2024-01-25T09:07:31;4.50;99.90
32522;DHT22;18963;51.504;5.316;2024-01-25T09:09:56;4.60;99.90
32522;DHT22;18963;51.504;5.316;2024-01-25T09:12:22;4.60;99.90
32522;DHT22;18963;51.504;5.316;2024-01-25T09:14:47;4.70;99.90
32522;DHT22;18963;51.504;5.316;2024-01-25T09:17:13;4.80;99.90
32522;DHT22;18963;51.504;5.316;2024-01-25T09:19:39;4.90;99.90
32522;DHT22;18963;51.504;5.316;2024-01-25T09:22:06;5.00;99.90
32522;DHT22;18963;51.504;5.316;2024-01-25T09:24:33;5.00;99.90
32522;DHT22;18963;51.504;5.316;2024-01-25T09:27:01;5.20;99.90
32522;DHT22;18963;51.504;5.316;2024-01-25T09:29:27;5.30;99.90
32522;DHT22;18963;51.504;5.316;2024-01-25T09:31:53;5.40;99.90
32522;DHT22;18963;51.504;5.316;2024-01-25T09:34:19;5.50;99.90
32522;DHT22;18963;51.504;5.316;2024-01-25T09:36:45;5.60;99.90
32522;DHT22;18963;51.504;5.316;2024-01-25T09:39:10;5.60;99.90
32522;DHT22;18963;51.504;5.316;2024-01-25T09:41:36;5.80;99.90
32522;DHT22;18963;51.504;5.316;2024-01-25T09:44:01;5.90;99.90
32522;DHT22;18963;51.504;5.316;2024-01-25T09:46:28;6.00;99.90
32522;DHT22;18963;51.504;5.316;2024-01-25T09:48:54;6.10;99.90
32522;DHT22;18963;51.504;5.316;2024-01-25T09:51:19;6.20;99.90
32522;DHT22;18963;51.504;5.316;2024-01-25T09:53:45;6.30;99.90
32522;DHT22;18963;51.504;5.316;2024-01-25T09:56:13;6.30;99.90
32522;DHT22;18963;51.504;5.316;2024-01-25T09:58:39;6.40;99.90
32522;DHT22;18963;51.504;5.316;2024-01-25T10:01:09;6.50;99.90
32522;DHT22;18963;51.504;5.316;2024-01-25T10:03:36;6.60;99.90
32522;DHT22;18963;51.504;5.316;2024-01-25T10:06:01;6.70;99.90
32522;DHT22;18963;51.504;5.316;2024-01-25T10:08:28;6.70;99.90
32522;DHT22;18963;51.504;5.316;2024-01-25T10:10:54;6.80;99.90
32522;DHT22;18963;51.504;5.316;2024-01-25T10:13:19;6.90;99.90
32522;DHT22;18963;51.504;5.316;2024-01-25T10:15:45;7.00;99.90
32522;DHT22;18963;51.504;5.316;2024-01-25T10:18:15;7.00;99.90
32522;DHT22;18963;51.504;5.316;2024-01-25T10:20:42;7.00;99.90
32522;DHT22;18963;51.504;5.316;2024-01-25T10:23:08;7.10;99.90
32522;DHT22;18963;51.504;5.316;2024-01-25T10:25:37;7.10;99.90
32522;DHT22;18963;51.504;5.316;2024-01-25T10:28:03;7.20;99.90
32522;DHT22;18963;51.504;5.316;2024-01-25T10:30:31;7.30;99.90
32522;DHT22;18963;51.504;5.316;2024-01-25T10:32:56;7.30;99.90
32522;DHT22;18963;51.504;5.316;2024-01-25T10:35:23;7.30;99.90
32522;DHT22;18963;51.504;5.316;2024-01-25T10:37:49;7.40;99.90
32522;DHT22;18963;51.504;5.316;2024-01-25T10:40:15;7.50;99.90
32522;DHT22;18963;51.504;5.316;2024-01-25T10:42:43;7.60;99.90
32522;DHT22;18963;51.504;5.316;2024-01-25T10:45:08;7.70;99.90
32522;DHT22;18963;51.504;5.316;2024-01-25T10:47:35;7.80;99.90
32522;DHT22;18963;51.504;5.316;2024-01-25T10:50:01;7.90;99.90
32522;DHT22;18963;51.504;5.316;2024-01-25T10:52:28;7.90;99.90
32522;DHT22;18963;51.504;5.316;2024-01-25T10:54:53;8.00;99.90
32522;DHT22;18963;51.504;5.316;2024-01-25T10:57:19;8.00;99.90
32522;DHT22;18963;51.504;5.316;2024-01-25T10:59:45;8.00;99.90
32522;DHT22;18963;51.504;5.316;2024-01-25T11:02:11;8.10;99.90
32522;DHT22;18963;51.504;5.316;2024-01-25T11:04:36;8.10;99.90
32522;DHT22;18963;51.504;5.316;2024-01-25T11:07:08;8.20;99.90
32522;DHT22;18963;51.504;5.316;2024-01-25T11:09:35;8.20;99.90
32522;DHT22;18963;51.504;5.316;2024-01-25T11:12:02;8.20;99.90
32522;DHT22;18963;51.504;5.316;2024-01-25T11:14:36;8.30;99.90
32522;DHT22;18963;51.504;5.316;2024-01-25T11:17:14;8.30;99.90
32522;DHT22;18963;51.504;5.316;2024-01-25T11:19:39;8.30;99.90
32522;DHT22;18963;51.504;5.316;2024-01-25T11:22:05;8.30;99.90
32522;DHT22;18963;51.504;5.316;2024-01-25T11:24:31;8.30;99.90
32522;DHT22;18963;51.504;5.316;2024-01-25T11:27:02;8.30;99.90
32522;DHT22;18963;51.504;5.316;2024-01-25T11:29:29;8.40;99.90
32522;DHT22;18963;51.504;5.316;2024-01-25T11:31:55;8.40;99.90
32522;DHT22;18963;51.504;5.316;2024-01-25T11:34:22;8.50;99.90
32522;DHT22;18963;51.504;5.316;2024-01-25T11:36:47;8.50;99.90
32522;DHT22;18963;51.504;5.316;2024-01-25T11:39:13;8.50;99.90
32522;DHT22;18963;51.504;5.316;2024-01-25T11:41:40;8.60;99.90
32522;DHT22;18963;51.504;5.316;2024-01-25T11:44:06;8.70;99.90
32522;DHT22;18963;51.504;5.316;2024-01-25T11:46:32;8.80;99.90
32522;DHT22;18963;51.504;5.316;2024-01-25T11:48:58;8.80;99.90
32522;DHT22;18963;51.504;5.316;2024-01-25T11:51:23;8.90;99.90
32522;DHT22;18963;51.504;5.316;2024-01-25T11:53:49;8.90;99.90
32522;DHT22;18963;51.504;5.316;2024-01-25T11:56:16;9.00;99.90
32522;DHT22;18963;51.504;5.316;2024-01-25T11:58:43;9.00;99.90
32522;DHT22;18963;51.504;5.316;2024-01-25T12:01:09;9.10;99.90
32522;DHT22;18963;51.504;5.316;2024-01-25T12:03:35;9.10;99.90
32522;DHT22;18963;51.504;5.316;2024-01-25T12:06:02;9.20;99.90
32522;DHT22;18963;51.504;5.316;2024-01-25T12:08:29;9.20;99.90
32522;DHT22;18963;51.504;5.316;2024-01-25T12:11:05;9.20;99.90
32522;DHT22;18963;51.504;5.316;2024-01-25T12:13:48;9.30;99.90
32522;DHT22;18963;51.504;5.316;2024-01-25T12:16:14;9.30;99.90
32522;DHT22;18963;51.504;5.316;2024-01-25T12:18:42;9.30;99.90
32522;DHT22;18963;51.504;5.316;2024-01-25T12:21:08;9.30;99.90
32522;DHT22;18963;51.504;5.316;2024-01-25T12:23:34;9.20;99.90
32522;DHT22;18963;51.504;5.316;2024-01-25T12:26:00;9.20;99.90
32522;DHT22;18963;51.504;5.316;2024-01-25T12:28:27;9.30;99.90
32522;DHT22;18963;51.504;5.316;2024-01-25T12:30:53;9.20;99.90
32522;DHT22;18963;51.504;5.316;2024-01-25T12:33:19;9.30;99.90
32522;DHT22;18963;51.504;5.316;2024-01-25T12:35:44;9.40;99.90
32522;DHT22;18963;51.504;5.316;2024-01-25T12:38:09;9.40;99.90
32522;DHT22;18963;51.504;5.316;2024-01-25T12:40:35;9.40;99.90
32522;DHT22;18963;51.504;5.316;2024-01-25T12:43:00;9.40;99.90
32522;DHT22;18963;51.504;5.316;2024-01-25T12:45:26;9.40;99.90
32522;DHT22;18963;51.504;5.316;2024-01-25T12:47:51;9.50;99.90
32522;DHT22;18963;51.504;5.316;2024-01-25T12:50:17;9.50;99.90
32522;DHT22;18963;51.504;5.316;2024-01-25T12:52:42;9.50;99.90
32522;DHT22;18963;51.504;5.316;2024-01-25T12:55:08;9.60;99.90
32522;DHT22;18963;51.504;5.316;2024-01-25T12:57:33;9.50;99.90
32522;DHT22;18963;51.504;5.316;2024-01-25T12:59:59;9.50;99.90
32522;DHT22;18963;51.504;5.316;2024-01-25T13:02:25;9.50;99.90
32522;DHT22;18963;51.504;5.316;2024-01-25T13:04:50;9.50;99.90
32522;DHT22;18963;51.504;5.316;2024-01-25T13:07:16;9.50;99.90
32522;DHT22;18963;51.504;5.316;2024-01-25T13:09:41;9.50;99.90
32522;DHT22;18963;51.504;5.316;2024-01-25T13:12:07;9.40;99.90
32522;DHT22;18963;51.504;5.316;2024-01-25T13:14:32;9.40;99.90
32522;DHT22;18963;51.504;5.316;2024-01-25T13:16:58;9.30;99.90
32522;DHT22;18963;51.504;5.316;2024-01-25T13:19:24;9.30;99.90
32522;DHT22;18963;51.504;5.316;2024-01-25T13:21:49;9.20;99.90
32522;DHT22;18963;51.504;5.316;2024-01-25T13:24:15;9.20;99.90
32522;DHT22;18963;51.504;5.316;2024-01-25T13:26:40;9.20;99.90
32522;DHT22;18963;51.504;5.316;2024-01-25T13:29:06;9.20;99.90
32522;DHT22;18963;51.504;5.316;2024-01-25T13:31:31;9.20;99.90
32522;DHT22;18963;51.504;5.316;2024-01-25T13:33:57;9.20;99.90
32522;DHT22;18963;51.504;5.316;2024-01-25T13:36:22;9.10;99.90
32522;DHT22;18963;51.504;5.316;2024-01-25T13:38:48;9.10;99.90
32522;DHT22;18963;51.504;5.316;2024-01-25T13:41:13;9.00;99.90
32522;DHT22;18963;51.504;5.316;2024-01-25T13:43:39;9.00;99.90
32522;DHT22;18963;51.504;5.316;2024-01-25T13:46:05;9.00;99.90
32522;DHT22;18963;51.504;5.316;2024-01-25T13:48:31;8.90;99.90
32522;DHT22;18963;51.504;5.316;2024-01-25T13:50:56;8.90;99.90
32522;DHT22;18963;51.504;5.316;2024-01-25T13:53:22;8.90;99.90
32522;DHT22;18963;51.504;5.316;2024-01-25T13:55:47;8.80;99.90
32522;DHT22;18963;51.504;5.316;2024-01-25T13:58:13;8.80;99.90
32522;DHT22;18963;51.504;5.316;2024-01-25T14:00:39;8.70;99.90
32522;DHT22;18963;51.504;5.316;2024-01-25T14:03:04;8.60;99.90
32522;DHT22;18963;51.504;5.316;2024-01-25T14:05:30;8.60;99.90
32522;DHT22;18963;51.504;5.316;2024-01-25T14:07:55;8.50;99.90
32522;DHT22;18963;51.504;5.316;2024-01-25T14:10:21;8.50;99.90
32522;DHT22;18963;51.504;5.316;2024-01-25T14:12:46;8.50;99.90
32522;DHT22;18963;51.504;5.316;2024-01-25T14:15:12;8.40;99.90
32522;DHT22;18963;51.504;5.316;2024-01-25T14:17:38;8.30;99.90
32522;DHT22;18963;51.504;5.316;2024-01-25T14:20:04;8.30;99.90
32522;DHT22;18963;51.504;5.316;2024-01-25T14:22:30;8.30;99.90
32522;DHT22;18963;51.504;5.316;2024-01-25T14:24:55;8.20;99.90
32522;DHT22;18963;51.504;5.316;2024-01-25T14:27:21;8.20;99.90
32522;DHT22;18963;51.504;5.316;2024-01-25T14:29:46;8.20;99.90
32522;DHT22;18963;51.504;5.316;2024-01-25T14:32:12;8.20;99.90
32522;DHT22;18963;51.504;5.316;2024-01-25T14:34:37;8.20;99.90
32522;DHT22;18963;51.504;5.316;2024-01-25T14:37:03;8.20;99.90
32522;DHT22;18963;51.504;5.316;2024-01-25T14:39:28;8.20;99.90
32522;DHT22;18963;51.504;5.316;2024-01-25T14:41:54;8.10;99.90
32522;DHT22;18963;51.504;5.316;2024-01-25T14:44:19;8.10;99.90
32522;DHT22;18963;51.504;5.316;2024-01-25T14:46:46;8.10;99.90
32522;DHT22;18963;51.504;5.316;2024-01-25T14:49:12;8.10;99.90
32522;DHT22;18963;51.504;5.316;2024-01-25T14:51:37;8.10;99.90
32522;DHT22;18963;51.504;5.316;2024-01-25T14:54:02;8.10;99.90
32522;DHT22;18963;51.504;5.316;2024-01-25T14:56:29;8.10;99.90
32522;DHT22;18963;51.504;5.316;2024-01-25T14:58:54;8.10;99.90
32522;DHT22;18963;51.504;5.316;2024-01-25T15:01:20;8.10;99.90
32522;DHT22;18963;51.504;5.316;2024-01-25T15:03:53;8.10;99.90
32522;DHT22;18963;51.504;5.316;2024-01-25T15:06:18;8.00;99.90
32522;DHT22;18963;51.504;5.316;2024-01-25T15:08:44;8.10;99.90
32522;DHT22;18963;51.504;5.316;2024-01-25T15:11:09;8.10;99.90
32522;DHT22;18963;51.504;5.316;2024-01-25T15:13:35;8.10;99.90
32522;DHT22;18963;51.504;5.316;2024-01-25T15:16:00;8.10;99.90
32522;DHT22;18963;51.504;5.316;2024-01-25T15:18:26;8.10;99.90
32522;DHT22;18963;51.504;5.316;2024-01-25T15:20:51;8.10;99.90
32522;DHT22;18963;51.504;5.316;2024-01-25T15:23:18;8.10;99.90
32522;DHT22;18963;51.504;5.316;2024-01-25T15:25:43;8.10;99.90
32522;DHT22;18963;51.504;5.316;2024-01-25T15:28:09;8.10;99.90
32522;DHT22;18963;51.504;5.316;2024-01-25T15:30:34;8.10;99.90
32522;DHT22;18963;51.504;5.316;2024-01-25T15:33:00;8.20;99.90
32522;DHT22;18963;51.504;5.316;2024-01-25T15:35:27;8.10;99.90